Time;durP1;ratioP1;P1;durP2;ratioP2;P2;SDS_P1;SDS_P2;PMS_P1;PMS_P2;Temp;Humidity;BMP_temperature;BMP_pressure;BME280_temperature;BME280_humidity;BME280_pressure;Samples;Min_cycle;Max_cycle;Signal;HPM_P1;HPM_P2
2022/05/20 00:00:11;;;;;;;1.50;0.93;;;;;;;12.53;43.33;94902.31;4967304;28;20038;-73
2022/05/20 00:02:36;;;;;;;1.13;1.00;;;;;;;12.56;43.15;94900.94;4974541;28;20577;-74
2022/05/20 00:05:02;;;;;;;2.72;1.15;;;;;;;12.53;43.11;94885.50;4982320;28;20038;-73
2022/05/20 00:07:28;;;;;;;1.15;0.95;;;;;;;12.50;43.74;94892.25;4959661;28;20030;-73
2022/05/20 00:09:53;;;;;;;3.13;1.05;;;;;;;12.41;43.72;94880.69;4974260;28;20445;-75
2022/05/20 00:12:19;;;;;;;1.10;0.82;;;;;;;12.54;43.43;94900.44;4951250;28;20402;-75
2022/05/20 00:14:45;;;;;;;2.22;1.00;;;;;;;12.53;43.49;94899.63;4975304;28;20039;-74
2022/05/20 00:17:11;;;;;;;1.25;0.90;;;;;;;12.47;43.42;94890.16;4972072;28;20042;-73
2022/05/20 00:19:36;;;;;;;1.10;0.90;;;;;;;12.37;43.37;94871.72;4968805;28;20438;-74
2022/05/20 00:22:02;;;;;;;1.63;1.00;;;;;;;12.50;43.77;94899.44;4980680;28;20018;-73
2022/05/20 00:24:28;;;;;;;0.90;0.80;;;;;;;12.33;43.79;94876.03;4978672;28;20065;-73
2022/05/20 00:26:53;;;;;;;2.45;1.00;;;;;;;12.28;43.55;94887.59;4969686;28;20049;-73
2022/05/20 00:29:21;;;;;;;1.30;1.20;;;;;;;12.28;43.66;94894.81;4972942;28;20490;-71
2022/05/20 00:31:47;;;;;;;1.02;0.88;;;;;;;12.33;43.69;94903.50;4975531;28;20042;-74
2022/05/20 00:34:12;;;;;;;3.08;1.10;;;;;;;12.34;43.76;94915.75;4978071;28;20375;-75
2022/05/20 00:36:37;;;;;;;1.50;1.15;;;;;;;12.30;43.88;94914.78;4967696;28;20034;-75
2022/05/20 00:39:03;;;;;;;1.48;1.10;;;;;;;12.29;44.07;94915.88;4980786;28;20406;-76
2022/05/20 00:41:29;;;;;;;2.55;1.65;;;;;;;12.26;44.58;94924.47;4959067;28;20046;-74
2022/05/20 00:43:54;;;;;;;1.10;1.00;;;;;;;12.19;44.44;94924.06;4963004;28;20042;-76
2022/05/20 00:46:25;;;;;;;1.35;1.00;;;;;;;12.22;44.31;94920.03;4980942;28;20423;-75
2022/05/20 00:49:01;;;;;;;2.40;1.15;;;;;;;12.22;44.24;94920.81;4973173;28;20558;-75
2022/05/20 00:51:31;;;;;;;1.70;1.00;;;;;;;12.20;44.61;94922.97;4972784;28;20057;-73
2022/05/20 00:54:01;;;;;;;1.73;0.90;;;;;;;12.02;44.82;94898.00;4972486;28;20058;-75
2022/05/20 00:56:51;;;;;;;3.50;1.25;;;;;;;12.01;44.71;94907.06;4975232;28;20132;-75
2022/05/20 00:59:20;;;;;;;0.80;0.77;;;;;;;12.08;44.71;94922.66;4969974;28;20038;-75
2022/05/20 01:01:48;;;;;;;2.67;1.00;;;;;;;12.10;44.82;94915.16;4970998;28;20041;-74
2022/05/20 01:04:16;;;;;;;1.20;0.85;;;;;;;11.93;44.85;94901.63;4973932;28;20508;-75
2022/05/20 01:06:42;;;;;;;1.55;0.95;;;;;;;11.98;45.10;94906.84;4972715;28;20037;-75
2022/05/20 01:09:08;;;;;;;1.60;1.02;;;;;;;11.95;45.54;94918.91;4972522;28;20410;-75
2022/05/20 01:11:36;;;;;;;2.40;1.10;;;;;;;11.88;45.36;94901.72;4970828;28;20397;-73
2022/05/20 01:14:03;;;;;;;1.38;0.88;;;;;;;11.85;45.21;94897.75;4972100;28;20042;-75
2022/05/20 01:16:29;;;;;;;1.23;1.10;;;;;;;11.83;45.18;94883.16;4970822;28;20026;-74
2022/05/20 01:18:56;;;;;;;2.25;1.00;;;;;;;11.93;45.29;94910.41;4966451;28;20022;-75
2022/05/20 01:21:22;;;;;;;4.93;1.10;;;;;;;11.97;45.60;94899.97;4976778;28;20149;-75
2022/05/20 01:23:48;;;;;;;1.27;1.00;;;;;;;11.96;45.36;94899.16;4974831;28;20149;-73
2022/05/20 01:26:14;;;;;;;1.63;0.90;;;;;;;11.74;45.25;94877.69;4977019;28;20057;-75
2022/05/20 01:28:39;;;;;;;0.95;0.93;;;;;;;11.81;45.34;94909.31;4997283;28;20025;-75
2022/05/20 01:31:10;;;;;;;1.25;0.90;;;;;;;11.81;45.23;94896.78;4988683;28;20041;-75
2022/05/20 01:33:40;;;;;;;2.50;1.00;;;;;;;11.82;45.47;94903.69;4988726;28;20034;-75
2022/05/20 01:36:09;;;;;;;1.00;0.90;;;;;;;11.74;45.33;94891.03;4990754;28;20037;-77
2022/05/20 01:38:34;;;;;;;1.33;0.95;;;;;;;11.66;45.37;94891.72;4992222;28;20030;-75
2022/05/20 01:41:13;;;;;;;1.13;0.90;;;;;;;11.72;45.71;94906.53;4975908;28;20502;-76
2022/05/20 01:43:51;;;;;;;2.20;0.90;;;;;;;11.68;45.37;94905.53;4983521;28;20413;-75
2022/05/20 01:46:25;;;;;;;1.40;0.90;;;;;;;11.66;45.58;94910.38;4981586;28;20041;-73
2022/05/20 01:48:59;;;;;;;2.37;1.30;;;;;;;11.66;45.61;94910.38;4979699;28;20125;-75
2022/05/20 01:51:29;;;;;;;3.13;1.02;;;;;;;11.57;46.05;94896.94;4960349;28;20039;-75
2022/05/20 01:54:02;;;;;;;3.13;1.35;;;;;;;11.61;45.64;94907.78;4963869;28;20031;-72
2022/05/20 01:56:34;;;;;;;1.30;1.05;;;;;;;11.59;45.74;94908.06;4976484;28;20061;-75
2022/05/20 01:59:12;;;;;;;2.55;1.20;;;;;;;11.45;45.94;94888.56;4966657;28;20026;-73
2022/05/20 02:01:46;;;;;;;2.83;1.13;;;;;;;11.39;46.42;94878.31;4970123;28;20057;-74
2022/05/20 02:04:21;;;;;;;2.05;1.38;;;;;;;11.49;46.10;94905.53;4960629;28;20073;-74
2022/05/20 02:06:54;;;;;;;1.48;0.85;;;;;;;11.47;46.30;94905.06;4972797;28;20030;-74
2022/05/20 02:09:33;;;;;;;2.40;1.30;;;;;;;11.41;46.49;94906.22;4962986;28;20062;-73
2022/05/20 02:11:59;;;;;;;1.80;1.08;;;;;;;11.28;46.29;94887.53;4967836;28;20073;-74
2022/05/20 02:14:47;;;;;;;1.10;0.85;;;;;;;11.36;46.57;94911.63;4967047;28;20481;-74
2022/05/20 02:17:28;;;;;;;1.58;0.90;;;;;;;11.30;46.55;94914.66;4974439;28;20327;-73
2022/05/20 02:20:06;;;;;;;1.20;1.00;;;;;;;11.16;47.00;94912.72;4967664;28;20038;-73
2022/05/20 02:22:38;;;;;;;1.83;1.50;;;;;;;11.08;46.98;94917.94;4971999;28;20029;-76
2022/05/20 02:25:06;;;;;;;2.55;1.65;;;;;;;10.95;47.02;94903.50;4963454;28;20559;-75
2022/05/20 02:27:36;;;;;;;2.83;1.73;;;;;;;11.01;47.28;94920.94;4972845;28;20030;-75
2022/05/20 02:30:09;;;;;;;2.70;1.65;;;;;;;11.05;47.45;94927.28;4978480;28;20042;-74
2022/05/20 02:33:03;;;;;;;1.70;1.20;;;;;;;11.05;47.36;94932.59;4992799;28;20112;-75
2022/05/20 02:35:28;;;;;;;1.58;1.23;;;;;;;10.90;47.29;94905.44;4987552;28;20040;-75
2022/05/20 02:37:54;;;;;;;4.82;1.30;;;;;;;10.98;47.17;94921.53;4993202;28;20489;-74
2022/05/20 02:40:20;;;;;;;1.73;1.13;;;;;;;11.02;46.96;94925.19;4979638;28;20049;-74
2022/05/20 02:42:46;;;;;;;1.48;1.05;;;;;;;11.06;46.75;94923.53;4981171;28;20133;-75
2022/05/20 02:45:13;;;;;;;1.42;0.98;;;;;;;11.07;46.73;94919.81;4992694;28;20033;-75
2022/05/20 02:47:38;;;;;;;2.13;0.98;;;;;;;11.06;46.56;94918.22;4992600;28;20380;-75
2022/05/20 02:50:08;;;;;;;1.55;0.90;;;;;;;10.87;46.88;94893.47;4989686;28;20469;-74
2022/05/20 02:52:33;;;;;;;2.53;1.30;;;;;;;10.82;46.75;94880.25;4997302;28;20029;-75
2022/05/20 02:55:00;;;;;;;1.10;1.00;;;;;;;10.95;47.00;94916.78;4991969;28;20363;-75
2022/05/20 02:57:26;;;;;;;3.22;1.35;;;;;;;10.81;46.82;94891.94;4988998;28;20114;-75
2022/05/20 03:05:20;;;;;;;1.15;0.88;;;;;;;10.96;46.89;94901.59;4989441;28;20048;-75
2022/05/20 03:07:46;;;;;;;2.45;0.90;;;;;;;10.93;47.04;94904.84;4987104;28;20045;-74
2022/05/20 03:10:11;;;;;;;1.02;0.82;;;;;;;10.97;46.98;94909.28;4997849;28;20504;-74
2022/05/20 03:12:37;;;;;;;0.98;0.90;;;;;;;10.98;46.94;94910.88;4976185;28;20034;-75
2022/05/20 03:15:07;;;;;;;2.97;1.27;;;;;;;10.94;46.94;94898.44;4992781;28;20034;-74
2022/05/20 03:17:33;;;;;;;1.42;0.90;;;;;;;10.97;47.26;94903.97;4987782;28;20889;-76
2022/05/20 03:19:58;;;;;;;0.85;0.82;;;;;;;10.92;47.76;94912.03;4991633;28;20021;-75
2022/05/20 03:22:24;;;;;;;5.80;0.80;;;;;;;10.88;47.72;94907.56;4984925;28;20129;-75
2022/05/20 03:24:49;;;;;;;0.98;0.85;;;;;;;10.82;48.07;94912.16;4986914;28;20712;-74
2022/05/20 03:27:17;;;;;;;1.92;0.88;;;;;;;10.86;47.93;94907.84;4986863;28;20042;-75
2022/05/20 03:29:43;;;;;;;2.50;1.52;;;;;;;10.90;48.35;94908.09;4976474;28;21418;-75
2022/05/20 03:32:09;;;;;;;3.83;1.30;;;;;;;10.80;48.29;94901.03;4994912;28;20083;-75
2022/05/20 03:34:34;;;;;;;1.73;1.45;;;;;;;10.88;48.77;94924.34;4979189;28;20049;-76
2022/05/20 03:37:00;;;;;;;3.13;0.93;;;;;;;10.76;48.58;94899.25;4992372;28;20030;-74
2022/05/20 03:39:25;;;;;;;3.97;1.45;;;;;;;10.93;48.70;94918.94;4979484;28;20037;-74
2022/05/20 03:41:52;;;;;;;1.80;1.38;;;;;;;11.02;48.59;94933.19;4995897;28;20578;-75
2022/05/20 03:44:18;;;;;;;4.90;1.83;;;;;;;11.05;48.82;94935.25;4971484;28;20533;-75
2022/05/20 03:46:46;;;;;;;4.13;2.00;;;;;;;11.06;48.69;94936.84;4974669;28;20484;-75
2022/05/20 03:49:13;;;;;;;3.45;2.22;;;;;;;10.88;48.87;94908.38;4966437;28;20394;-74
2022/05/20 03:51:39;;;;;;;4.80;2.50;;;;;;;11.09;48.69;94930.97;4975999;28;20077;-75
2022/05/20 03:54:05;;;;;;;3.13;2.65;;;;;;;11.28;48.51;94954.13;4970048;28;20402;-74
2022/05/20 03:56:30;;;;;;;6.25;2.22;;;;;;;11.34;48.15;94955.63;4985093;28;20084;-75
2022/05/20 03:58:56;;;;;;;4.13;2.20;;;;;;;11.38;48.19;94956.63;4961622;28;20129;-75
2022/05/20 04:04:06;;;;;;;4.28;2.53;;;;;;;11.20;48.26;94957.44;4962249;28;20409;-74
2022/05/20 04:06:31;;;;;;;5.97;2.88;;;;;;;11.05;48.93;94956.56;4970186;28;20445;-75
2022/05/20 04:08:56;;;;;;;4.63;2.97;;;;;;;10.89;49.63;94949.88;4971095;28;20494;-75
2022/05/20 04:11:23;;;;;;;4.43;2.25;;;;;;;10.99;49.52;94944.41;4962729;28;20042;-72
2022/05/20 04:13:48;;;;;;;8.63;3.05;;;;;;;11.07;49.31;94940.31;4968965;28;20058;-73
2022/05/20 04:16:15;;;;;;;7.72;2.65;;;;;;;11.32;49.35;94925.81;4964574;28;20715;-73
2022/05/20 04:18:41;;;;;;;9.15;2.90;;;;;;;11.70;49.14;94948.66;4974140;28;20148;-75
2022/05/20 04:21:08;;;;;;;5.60;2.72;;;;;;;11.76;48.78;94941.38;4965352;28;20035;-75
2022/05/20 04:23:33;;;;;;;4.85;2.60;;;;;;;11.86;48.63;94936.66;4971398;28;20133;-75
2022/05/20 04:25:59;;;;;;;5.72;2.78;;;;;;;11.87;48.16;94924.13;4969485;28;20406;-75
2022/05/20 04:28:25;;;;;;;5.93;3.63;;;;;;;11.90;48.24;94948.31;4972175;28;20022;-73
2022/05/20 04:30:56;;;;;;;6.50;3.47;;;;;;;11.42;49.34;94952.31;4970126;28;20038;-75
2022/05/20 04:33:23;;;;;;;10.60;3.70;;;;;;;11.65;48.35;94930.09;4957602;28;20057;-75
2022/05/20 04:35:48;;;;;;;5.38;3.50;;;;;;;12.04;47.97;94954.47;4975197;28;20076;-74
2022/05/20 04:38:14;;;;;;;8.90;4.20;;;;;;;12.01;48.33;94932.94;4974016;28;20632;-75
2022/05/20 04:40:39;;;;;;;8.77;4.20;;;;;;;11.65;48.48;94940.75;4965614;28;20014;-74
2022/05/20 04:48:32;;;;;;;12.13;4.07;;;;;;;12.25;46.97;94944.22;4978516;28;20433;-75
2022/05/20 04:50:58;;;;;;;6.85;3.08;;;;;;;12.25;47.16;94943.44;4975355;28;20042;-74
2022/05/20 04:56:07;;;;;;;6.97;3.47;;;;;;;12.16;47.88;94959.34;4985533;28;20410;-74
2022/05/20 04:58:33;;;;;;;5.10;3.20;;;;;;;12.45;47.21;94972.38;4973941;28;20022;-74
2022/05/20 05:00:58;;;;;;;8.88;4.28;;;;;;;12.58;47.54;94978.81;4968030;28;20149;-75
2022/05/20 05:03:24;;;;;;;5.80;3.60;;;;;;;12.66;47.01;94970.94;4977182;28;20045;-74
2022/05/20 05:05:49;;;;;;;6.45;3.67;;;;;;;13.07;46.05;94975.41;4968320;28;20089;-74
2022/05/20 05:08:16;;;;;;;7.75;4.32;;;;;;;12.88;44.72;94954.19;4996563;28;20057;-74
2022/05/20 05:10:43;;;;;;;8.48;4.28;;;;;;;12.84;45.47;94970.03;4981475;28;21311;-75
2022/05/20 05:13:09;;;;;;;6.88;4.28;;;;;;;12.77;45.27;94956.28;4977298;28;20032;-76
2022/05/20 05:15:35;;;;;;;9.90;4.20;;;;;;;12.99;45.33;94960.13;4972358;28;20034;-75
2022/05/20 05:18:09;;;;;;;10.38;4.20;;;;;;;12.81;45.83;94978.63;4985384;28;20030;-75
2022/05/20 05:20:40;;;;;;;7.57;4.13;;;;;;;12.36;46.93;94968.84;4987499;28;20373;-75
2022/05/20 05:23:05;;;;;;;8.13;3.80;;;;;;;12.80;46.23;94979.72;4977739;28;20205;-75
2022/05/20 05:25:33;;;;;;;6.38;3.92;;;;;;;13.03;46.09;94979.78;4967401;28;20038;-75
2022/05/20 05:27:59;;;;;;;5.75;3.88;;;;;;;13.05;45.39;94967.72;4980522;28;20053;-75
2022/05/20 05:30:25;;;;;;;7.90;5.10;;;;;;;12.41;46.69;94987.41;4975873;28;20041;-75
2022/05/20 05:32:51;;;;;;;6.85;3.90;;;;;;;12.62;46.73;94975.28;4981001;28;20042;-73
2022/05/20 05:35:23;;;;;;;8.15;4.32;;;;;;;13.24;45.07;94980.94;4986256;28;20050;-75
2022/05/20 05:37:49;;;;;;;14.05;4.85;;;;;;;13.40;43.92;94973.38;4976909;28;21695;-75
2022/05/20 05:40:18;;;;;;;10.82;4.72;;;;;;;13.59;44.57;94979.38;4964157;28;20080;-75
2022/05/20 05:42:44;;;;;;;10.70;4.40;;;;;;;13.73;43.81;94980.88;4977677;28;20034;-75
2022/05/20 05:45:12;;;;;;;9.30;3.88;;;;;;;13.50;43.78;94979.25;4971200;28;20030;-75
2022/05/20 05:47:37;;;;;;;7.93;4.28;;;;;;;13.62;43.42;94960.81;4972204;28;20073;-75
2022/05/20 05:50:04;;;;;;;5.00;3.85;;;;;;;13.91;43.42;94963.06;4962457;28;20520;-75
2022/05/20 05:52:30;;;;;;;7.28;4.65;;;;;;;13.95;43.29;94953.31;4978282;28;20037;-75
2022/05/20 05:54:55;;;;;;;5.55;3.83;;;;;;;13.69;44.35;94974.53;4968450;28;20027;-74
2022/05/20 05:57:20;;;;;;;6.20;4.03;;;;;;;13.95;43.29;94958.66;4971101;28;20088;-75
2022/05/20 05:59:46;;;;;;;6.70;4.32;;;;;;;14.12;43.61;94964.13;4970138;28;20605;-74
2022/05/20 06:02:11;;;;;;;9.27;4.50;;;;;;;13.96;44.50;94962.13;4965320;28;21669;-75
2022/05/20 06:04:37;;;;;;;10.10;4.25;;;;;;;13.54;44.15;94972.22;4975894;28;20030;-75
2022/05/20 06:07:05;;;;;;;9.18;5.18;;;;;;;13.93;43.54;94971.56;4967386;28;20170;-75
2022/05/20 06:09:32;;;;;;;8.60;4.40;;;;;;;14.28;42.62;94964.50;4970147;28;20121;-75
2022/05/20 06:11:57;;;;;;;7.20;4.20;;;;;;;14.15;42.77;94952.81;4978252;28;20446;-75
2022/05/20 06:14:23;;;;;;;8.68;4.82;;;;;;;14.50;42.11;94974.34;4961028;28;20030;-75
2022/05/20 06:16:48;;;;;;;4.90;4.22;;;;;;;14.74;41.87;94957.94;4966764;28;20061;-75
2022/05/20 06:19:14;;;;;;;5.97;3.70;;;;;;;14.48;42.96;94971.97;4970257;28;20078;-74
2022/05/20 06:21:40;;;;;;;9.52;4.97;;;;;;;14.67;42.50;94953.00;4975476;28;20057;-74
2022/05/20 06:24:08;;;;;;;13.70;4.78;;;;;;;14.47;42.83;94964.28;4977037;28;20070;-75
2022/05/20 06:26:34;;;;;;;11.65;4.45;;;;;;;14.46;41.48;94946.63;4958158;28;20578;-75
2022/05/20 06:28:59;;;;;;;7.57;4.47;;;;;;;14.81;41.23;94966.31;4973351;28;20381;-75
2022/05/20 06:31:25;;;;;;;9.85;5.10;;;;;;;14.96;41.46;94945.19;4960776;28;20084;-74
2022/05/20 06:33:50;;;;;;;10.90;6.53;;;;;;;15.25;40.61;94965.28;4974169;28;20038;-75
2022/05/20 06:41:44;;;;;;;9.98;4.25;;;;;;;15.44;39.82;94966.56;4997495;28;20063;-75
2022/05/20 06:44:09;;;;;;;6.72;3.85;;;;;;;15.49;39.93;94946.88;4992335;28;20490;-75
2022/05/20 06:46:35;;;;;;;11.07;4.90;;;;;;;15.59;40.49;94968.00;4964292;28;20101;-75
2022/05/20 06:49:01;;;;;;;5.82;4.35;;;;;;;15.11;41.97;94962.72;4993851;28;20018;-75
2022/05/20 06:51:29;;;;;;;6.03;4.38;;;;;;;15.12;41.66;94961.63;4992918;28;20042;-75
2022/05/20 06:53:57;;;;;;;9.55;4.18;;;;;;;15.30;41.60;94962.44;4995039;28;20038;-74
2022/05/20 06:56:24;;;;;;;9.88;4.45;;;;;;;15.76;40.61;94967.97;4997913;28;20383;-75
2022/05/20 06:58:50;;;;;;;9.60;5.90;;;;;;;15.71;40.31;94951.25;4981292;28;20017;-75
2022/05/20 07:01:17;;;;;;;9.88;4.68;;;;;;;15.53;40.83;94969.25;4994787;28;20026;-74
2022/05/20 07:03:43;;;;;;;8.32;4.85;;;;;;;15.59;40.06;94959.94;4986893;28;20023;-75
2022/05/20 07:06:09;;;;;;;8.93;4.50;;;;;;;16.01;39.23;94947.56;4990436;28;20037;-76
2022/05/20 07:08:36;;;;;;;8.65;4.30;;;;;;;16.12;38.54;94959.53;4994780;28;20462;-75
2022/05/20 07:11:02;;;;;;;8.88;4.22;;;;;;;16.14;39.19;94951.94;4984864;28;20116;-74
2022/05/20 07:13:29;;;;;;;5.25;3.78;;;;;;;16.13;39.74;94953.06;4995153;28;20367;-75
2022/05/20 07:15:55;;;;;;;11.57;3.75;;;;;;;16.13;39.65;94955.75;4990772;28;20037;-75
2022/05/20 07:18:20;;;;;;;7.07;4.18;;;;;;;16.21;38.82;94956.81;4990112;28;20030;-75
2022/05/20 07:20:45;;;;;;;5.53;3.80;;;;;;;16.38;37.84;94956.78;4985987;28;20038;-75
2022/05/20 07:23:11;;;;;;;12.57;4.28;;;;;;;16.65;37.83;94960.94;4992755;28;20045;-74
2022/05/20 07:25:37;;;;;;;9.25;4.57;;;;;;;16.59;37.42;94941.53;4984712;28;20096;-74
2022/05/20 07:28:05;;;;;;;7.90;3.88;;;;;;;16.84;37.72;94958.63;4992918;28;20057;-75
2022/05/20 07:30:31;;;;;;;6.05;4.72;;;;;;;16.82;37.99;94944.72;4984149;28;20476;-75
2022/05/20 07:32:57;;;;;;;8.23;4.40;;;;;;;16.66;37.46;94957.94;4983730;28;20037;-75
2022/05/20 07:35:22;;;;;;;5.75;3.65;;;;;;;16.68;37.25;94939.59;4991254;28;20088;-76
2022/05/20 07:37:50;;;;;;;6.68;3.92;;;;;;;16.81;36.43;94932.44;4996151;28;20029;-76
2022/05/20 07:40:16;;;;;;;4.90;3.17;;;;;;;17.21;36.18;94946.25;4980005;28;20105;-75
2022/05/20 07:42:41;;;;;;;7.53;3.80;;;;;;;17.25;36.53;94927.59;4981118;28;20030;-76
2022/05/20 07:45:07;;;;;;;6.00;3.85;;;;;;;17.38;36.31;94931.91;4994376;28;20048;-75
2022/05/20 07:47:33;;;;;;;6.18;4.00;;;;;;;17.30;35.70;94927.38;4990649;28;20050;-74
2022/05/20 07:49:58;;;;;;;4.50;3.38;;;;;;;17.13;36.56;94925.56;4983632;28;20042;-74
2022/05/20 07:55:09;;;;;;;6.88;3.67;;;;;;;17.29;35.63;94931.19;4960221;28;20564;-75
2022/05/20 07:57:37;;;;;;;6.45;4.30;;;;;;;17.45;35.80;94930.25;4980738;28;20579;-75
2022/05/20 08:00:04;;;;;;;7.82;3.05;;;;;;;17.53;34.42;94939.38;4994584;28;20030;-75
2022/05/20 08:02:30;;;;;;;3.22;1.70;;;;;;;16.81;32.92;94927.06;4975800;28;20062;-75
2022/05/20 08:04:58;;;;;;;3.05;1.80;;;;;;;16.89;33.67;94928.91;4971036;28;20145;-75
2022/05/20 08:07:34;;;;;;;2.80;1.90;;;;;;;16.97;32.80;94930.72;4970521;28;20026;-75
2022/05/20 08:10:00;;;;;;;2.85;1.20;;;;;;;17.16;32.42;94928.41;4992483;28;20398;-75
2022/05/20 08:12:26;;;;;;;4.75;2.00;;;;;;;17.11;32.64;94925.88;4984878;28;20816;-74
2022/05/20 08:14:52;;;;;;;2.58;1.65;;;;;;;17.14;32.93;94930.66;4995573;28;20049;-74
2022/05/20 08:17:24;;;;;;;4.28;2.03;;;;;;;17.21;33.31;94919.38;4991922;28;20033;-74
2022/05/20 08:19:53;;;;;;;2.70;1.58;;;;;;;17.10;32.94;94908.22;4984566;28;20026;-75
2022/05/20 08:22:23;;;;;;;3.67;2.03;;;;;;;17.32;31.68;94928.63;4999753;28;20037;-75
2022/05/20 08:24:53;;;;;;;4.28;1.73;;;;;;;17.44;31.35;94919.84;4991622;28;20033;-75
2022/05/20 08:27:20;;;;;;;3.00;1.67;;;;;;;17.45;31.88;94922.19;4984753;28;20034;-75
2022/05/20 08:29:46;;;;;;;2.30;1.63;;;;;;;17.36;32.79;94920.66;4986182;28;20040;-75
2022/05/20 08:32:12;;;;;;;5.38;1.65;;;;;;;17.51;33.59;94920.06;4995652;28;20046;-75
2022/05/20 08:34:38;;;;;;;3.03;1.75;;;;;;;17.65;32.35;94920.56;4991576;28;20988;-75
2022/05/20 08:37:04;;;;;;;1.80;1.02;;;;;;;17.56;30.77;94920.66;5006399;28;20033;-74
2022/05/20 08:39:30;;;;;;;5.65;1.50;;;;;;;17.38;30.24;94902.31;4989428;28;20095;-75
2022/05/20 08:41:55;;;;;;;3.63;1.50;;;;;;;17.56;32.35;94909.13;5001451;28;20132;-74
2022/05/20 08:44:24;;;;;;;3.03;1.40;;;;;;;17.58;32.23;94906.88;4990842;28;20060;-73
2022/05/20 08:46:49;;;;;;;3.47;1.33;;;;;;;17.58;32.77;94909.59;4998401;28;20061;-74
2022/05/20 08:49:18;;;;;;;2.95;1.65;;;;;;;17.88;33.07;94897.56;4980957;28;20034;-75
2022/05/20 08:51:50;;;;;;;2.00;1.02;;;;;;;17.96;31.42;94902.09;5007336;28;20065;-76
2022/05/20 08:54:16;;;;;;;2.60;1.30;;;;;;;17.99;31.56;94898.72;4992880;28;20061;-75
2022/05/20 08:56:44;;;;;;;2.95;1.60;;;;;;;17.77;32.12;94882.19;4988663;28;20109;-73
2022/05/20 08:59:15;;;;;;;3.03;1.52;;;;;;;17.67;32.68;94877.22;4977722;28;20065;-74
2022/05/20 09:01:46;;;;;;;2.08;1.40;;;;;;;17.72;32.01;94880.47;4974242;28;20503;-75
2022/05/20 09:04:15;;;;;;;2.03;1.50;;;;;;;18.05;32.56;94883.16;4966130;28;20033;-75
2022/05/20 09:07:02;;;;;;;4.28;1.63;;;;;;;17.94;32.49;94885.50;4974253;28;20033;-76
2022/05/20 09:09:46;;;;;;;2.35;1.77;;;;;;;17.96;31.57;94877.09;4978012;28;20119;-75
2022/05/20 09:12:26;;;;;;;3.90;1.38;;;;;;;17.76;32.51;94870.63;4976640;28;20042;-75
2022/05/20 09:18:11;;;;;;;3.08;1.55;;;;;;;17.83;31.55;94811.69;4986637;28;20605;-75
2022/05/20 09:21:03;;;;;;;2.67;1.45;;;;;;;17.87;31.63;94861.00;4995030;28;20046;-73
2022/05/20 09:23:29;;;;;;;1.35;1.15;;;;;;;18.03;31.05;94859.28;4986332;28;20056;-75
2022/05/20 09:26:22;;;;;;;3.00;1.73;;;;;;;18.30;32.33;94854.34;4971805;28;20399;-75
2022/05/20 09:28:53;;;;;;;4.43;1.10;;;;;;;18.52;30.54;94853.91;4992037;28;20037;-74
2022/05/20 09:31:25;;;;;;;4.57;1.55;;;;;;;18.27;31.05;94849.66;4982207;28;20733;-75
2022/05/20 09:34:09;;;;;;;3.38;1.30;;;;;;;17.82;31.09;94837.00;4998205;28;20487;-76
2022/05/20 09:36:55;;;;;;;2.20;1.42;;;;;;;17.51;31.71;94842.06;4988664;28;20058;-75
2022/05/20 09:39:27;;;;;;;2.83;1.17;;;;;;;17.67;29.67;94839.53;4992015;28;20070;-75
2022/05/20 09:41:57;;;;;;;1.58;1.15;;;;;;;17.88;30.50;94841.06;4998152;28;20026;-75
2022/05/20 09:44:33;;;;;;;1.50;1.30;;;;;;;18.04;29.32;94831.22;4995147;28;20119;-75
2022/05/20 09:47:08;;;;;;;3.20;1.25;;;;;;;17.90;29.63;94836.13;4975572;28;20157;-75
2022/05/20 09:49:36;;;;;;;;;;;;;;;18.39;29.40;94834.25;4983463;28;20052;-75
2022/05/20 09:52:02;;;;;;;1.60;1.10;;;;;;;18.52;29.29;94831.56;5000340;28;19949;-74
2022/05/20 09:54:37;;;;;;;2.17;1.13;;;;;;;18.25;27.38;94819.56;4992872;28;20034;-75
2022/05/20 09:57:03;;;;;;;0.80;0.70;;;;;;;18.34;27.26;94828.31;4992624;28;20050;-76
2022/05/20 09:59:47;;;;;;;1.50;0.63;;;;;;;18.45;25.51;94829.44;4977930;28;20037;-75
2022/05/20 10:02:22;;;;;;;2.00;0.93;;;;;;;18.13;25.29;94822.28;4995723;28;20122;-74
2022/05/20 10:05:24;;;;;;;1.60;1.08;;;;;;;18.41;28.12;94825.84;4985815;28;20041;-75
2022/05/20 10:08:13;;;;;;;1.90;1.00;;;;;;;18.87;28.11;94822.66;4990734;28;20030;-74
2022/05/20 10:10:45;;;;;;;1.05;0.95;;;;;;;18.99;26.98;94829.16;4989305;28;20500;-75
2022/05/20 10:13:22;;;;;;;1.20;1.10;;;;;;;18.43;26.57;94802.84;4967480;28;20022;-75
2022/05/20 10:15:51;;;;;;;1.25;0.93;;;;;;;18.69;26.55;94813.25;4962312;28;20031;-75
2022/05/20 10:18:43;;;;;;;4.07;1.13;;;;;;;18.91;27.66;94811.22;4978795;28;20037;-75
2022/05/20 10:21:25;;;;;;;3.03;0.90;;;;;;;18.68;27.72;94810.88;4972312;28;20605;-75
2022/05/20 10:24:31;;;;;;;4.93;1.42;;;;;;;18.68;26.96;94803.59;4968508;28;20585;-75
2022/05/20 10:27:07;;;;;;;1.45;1.00;;;;;;;18.89;27.50;94771.91;4914069;29;20079;-75
2022/05/20 10:32:53;;;;;;;2.00;0.85;;;;;;;19.18;26.23;94795.03;4969691;28;20528;-75
2022/05/20 10:35:25;;;;;;;1.10;0.75;;;;;;;19.18;25.39;94795.03;4976852;28;20155;-75
2022/05/20 10:38:19;;;;;;;4.20;0.88;;;;;;;19.33;25.17;94775.41;4968004;28;21328;-74
2022/05/20 10:40:58;;;;;;;1.52;0.85;;;;;;;19.51;24.94;94772.41;4972701;28;20049;-76
2022/05/20 10:49:38;;;;;;;0.75;0.70;;;;;;;19.66;24.13;94761.66;4972148;28;20058;-74
2022/05/20 10:52:50;;;;;;;1.10;0.80;;;;;;;19.69;23.87;94762.88;4975686;28;20042;-76
2022/05/20 10:55:50;;;;;;;1.95;1.10;;;;;;;19.57;23.54;94761.03;4968621;28;20343;-75
2022/05/20 10:58:49;;;;;;;1.70;0.80;;;;;;;19.40;23.06;94763.25;4967688;28;20038;-76
2022/05/20 11:01:49;;;;;;;1.38;1.02;;;;;;;19.30;23.37;94749.16;4968251;28;20394;-75
2022/05/20 11:04:43;;;;;;;1.15;0.65;;;;;;;19.28;23.30;94758.69;4991013;28;20052;-76
2022/05/20 11:07:11;;;;;;;1.58;0.98;;;;;;;19.48;23.61;94748.84;4966284;28;20050;-75
2022/05/20 11:09:48;;;;;;;0.95;0.65;;;;;;;19.46;22.47;94741.09;4966576;28;20042;-75
2022/05/20 11:12:36;;;;;;;1.65;1.42;;;;;;;19.44;21.71;94742.53;4971914;28;20209;-75
2022/05/20 11:15:11;;;;;;;2.38;0.88;;;;;;;19.47;22.72;94741.88;4966438;28;20141;-75
2022/05/20 11:17:43;;;;;;;0.40;0.40;;;;;;;19.97;20.01;94736.56;4974948;28;20039;-75
2022/05/20 11:20:38;;;;;;;0.70;0.70;;;;;;;20.03;17.72;94735.19;4964104;28;20593;-74
2022/05/20 11:23:31;;;;;;;0.63;0.50;;;;;;;20.17;17.89;94729.34;4954159;28;20042;-76
2022/05/20 11:26:11;;;;;;;1.58;0.63;;;;;;;20.40;17.42;94726.75;4963809;28;20372;-75
2022/05/20 11:28:56;;;;;;;0.60;0.60;;;;;;;20.47;18.13;94729.63;4971669;28;20034;-75
2022/05/20 11:31:39;;;;;;;1.23;0.57;;;;;;;20.32;19.31;94717.72;4967991;28;20034;-74
2022/05/20 11:34:25;;;;;;;0.95;0.52;;;;;;;20.14;18.90;94716.53;4969884;28;20049;-74
2022/05/20 11:37:24;;;;;;;0.73;0.55;;;;;;;20.11;20.16;94718.00;4969087;28;20061;-75
2022/05/20 11:40:20;;;;;;;2.08;1.02;;;;;;;20.30;22.77;94709.19;4960062;28;20030;-75
2022/05/20 11:43:40;;;;;;;0.77;0.63;;;;;;;20.60;19.70;94694.00;4963218;28;20589;-76
2022/05/20 11:46:25;;;;;;;1.08;0.70;;;;;;;20.80;21.23;94700.19;4922052;29;20511;-74
2022/05/20 11:48:55;;;;;;;1.77;0.90;;;;;;;20.32;20.41;94700.72;4937440;29;20160;-76
2022/05/20 11:51:51;;;;;;;0.95;0.50;;;;;;;20.36;20.87;94702.38;4945572;28;20085;-75
2022/05/20 11:54:26;;;;;;;1.52;0.85;;;;;;;20.15;19.93;94675.63;4967992;28;20049;-75
2022/05/20 11:57:01;;;;;;;0.90;0.80;;;;;;;20.04;19.69;94690.06;4954991;28;20582;-75
2022/05/20 11:59:40;;;;;;;1.38;0.73;;;;;;;20.27;20.87;94682.88;4974585;28;20042;-74
2022/05/20 12:02:12;;;;;;;1.55;0.82;;;;;;;20.25;20.91;94695.16;4960672;28;20053;-75
2022/05/20 12:04:40;;;;;;;5.38;0.90;;;;;;;20.60;22.30;94677.00;4975490;28;20041;-76
2022/05/20 12:07:15;;;;;;;0.68;0.40;;;;;;;20.88;22.39;94677.56;4988862;28;20041;-74
2022/05/20 12:09:51;;;;;;;1.60;0.80;;;;;;;20.44;20.94;94682.47;4990232;28;20107;-75
2022/05/20 12:12:33;;;;;;;1.23;0.70;;;;;;;20.70;21.90;94686.47;4984603;28;20132;-76
2022/05/20 12:14:59;;;;;;;2.60;0.90;;;;;;;20.80;21.79;94683.97;4985356;28;20282;-75
2022/05/20 12:17:40;;;;;;;0.98;0.63;;;;;;;21.09;20.21;94666.38;4970150;28;20046;-75
2022/05/20 12:26:07;;;;;;;1.33;0.80;;;;;;;21.34;22.98;94661.41;4989202;28;20045;-75
2022/05/20 12:28:36;;;;;;;1.85;0.60;;;;;;;21.48;19.80;94647.34;4983739;28;20033;-76
2022/05/20 12:31:20;;;;;;;1.20;0.50;;;;;;;21.46;20.20;94656.59;4988076;28;20088;-76
2022/05/20 12:34:37;;;;;;;2.20;0.60;;;;;;;21.38;22.93;94606.22;4990296;28;20482;-75